Terminal Aerodrome Forecast
Issued by NWS

Home | Current Version | Previous Version | Text Only | Print | Product List | Glossary On
Versions: 1 2 3 4 5 6 7 8 9 10 11 12 13 14 15
000
FTPA31 PHFO 091740
TAFHKO
TAF
PHKO 091740Z 0918/1018 VRB04KT P6SM -RA SCT018 OVC030
      TEMPO 0918/0921 3SM RA BR BKN018
     FM092100 21010KT P6SM -RA SCT025 BKN050 BKN100
     FM100600 05005KT P6SM VCSH SCT025 BKN050 BKN100=

USA.gov is the U.S. government's official web portal to all federal, state and local government web resources and services.